createdAt,value
2022-10-16T00:01:27.643Z,97855.31
2022-10-16T00:03:54.282Z,97858.41
2022-10-16T00:06:21.950Z,97852.94
2022-10-16T00:08:49.199Z,97862.41
2022-10-16T00:11:17.305Z,97858.25
2022-10-16T00:13:44.679Z,97854.88
2022-10-16T00:16:11.799Z,97856.16
2022-10-16T00:18:38.391Z,97856.38
2022-10-16T00:21:06.917Z,97850.94
2022-10-16T00:23:33.874Z,97862.09
2022-10-16T00:26:02.435Z,97859.97
2022-10-16T00:28:29.232Z,97866.50
2022-10-16T00:30:56.115Z,97870.44
2022-10-16T00:33:22.657Z,97860.69
2022-10-16T00:35:49.484Z,97865.88
2022-10-16T00:38:16.044Z,97863.59
2022-10-16T00:40:42.509Z,97866.50
2022-10-16T00:43:33.075Z,97875.34
2022-10-16T00:45:59.902Z,97882.09
2022-10-16T00:48:26.515Z,97878.66
2022-10-16T00:50:53.290Z,97878.53
2022-10-16T00:53:20.209Z,97872.94
2022-10-16T00:55:46.945Z,97879.66
2022-10-16T00:58:13.684Z,97875.53
2022-10-16T01:00:40.107Z,97879.31
2022-10-16T01:03:23.003Z,97879.25
2022-10-16T01:06:00.076Z,97872.06
2022-10-16T01:08:49.807Z,97878.31
2022-10-16T01:11:24.212Z,97883.06
2022-10-16T01:13:54.254Z,97877.31
2022-10-16T01:16:35.350Z,97880.00
2022-10-16T01:19:06.893Z,97875.31
2022-10-16T01:21:36.143Z,97878.78
2022-10-16T01:24:07.601Z,97868.53
2022-10-16T01:26:44.374Z,97876.34
2022-10-16T01:29:16.422Z,97874.03
2022-10-16T01:31:45.202Z,97876.97
2022-10-16T01:34:21.644Z,97874.41
2022-10-16T01:36:51.606Z,97877.97
2022-10-16T01:39:21.741Z,97888.06
2022-10-16T01:41:52.293Z,97887.53
2022-10-16T01:44:20.996Z,97891.38
2022-10-16T01:46:49.515Z,97883.91
2022-10-16T01:49:17.041Z,97886.97
2022-10-16T01:51:46.172Z,97881.41
2022-10-16T01:54:14.621Z,97885.88
2022-10-16T01:56:41.887Z,97882.91
2022-10-16T01:59:12.318Z,97878.72
2022-10-16T02:01:41.414Z,97869.63
2022-10-16T02:04:31.195Z,97870.03
2022-10-16T02:06:57.857Z,97869.16
2022-10-16T02:09:24.480Z,97870.63
2022-10-16T02:11:55.041Z,97869.94
2022-10-16T02:14:23.070Z,97875.44
2022-10-16T02:16:49.535Z,97869.47
2022-10-16T02:19:18.020Z,97884.97
2022-10-16T02:21:49.081Z,97878.50
2022-10-16T02:24:21.359Z,97869.25
2022-10-16T02:26:54.017Z,97878.97
2022-10-16T02:29:24.068Z,97889.13
2022-10-16T02:31:53.429Z,97892.69
2022-10-16T02:34:23.844Z,97894.31
2022-10-16T02:36:51.397Z,97893.19
2022-10-16T02:39:19.238Z,97885.09
2022-10-16T02:41:45.736Z,97888.38
2022-10-16T02:44:12.194Z,97890.22
2022-10-16T02:46:38.714Z,97898.22
2022-10-16T02:49:05.254Z,97897.31
2022-10-16T02:51:31.771Z,97894.13
2022-10-16T02:53:58.212Z,97900.75
2022-10-16T02:56:25.029Z,97900.81
2022-10-16T02:58:51.500Z,97902.59
2022-10-16T03:01:18.078Z,97910.84
2022-10-16T03:03:44.629Z,97914.63
2022-10-16T03:06:11.123Z,97919.22
2022-10-16T03:08:37.592Z,97924.69
2022-10-16T03:11:04.221Z,97928.50
2022-10-16T03:13:30.702Z,97926.94
2022-10-16T03:15:57.206Z,97916.38
2022-10-16T03:18:23.670Z,97912.94
2022-10-16T03:20:50.141Z,97907.63
2022-10-16T03:23:16.634Z,97911.13
2022-10-16T03:25:43.093Z,97912.13
2022-10-16T03:28:10.036Z,97908.81
2022-10-16T03:30:36.486Z,97899.97
2022-10-16T03:33:02.945Z,97895.66
2022-10-16T03:35:29.407Z,97897.72
2022-10-16T03:37:56.176Z,97911.13
2022-10-16T03:40:22.643Z,97908.53
2022-10-16T03:42:49.124Z,97913.22
2022-10-16T03:45:15.546Z,97915.06
2022-10-16T03:47:42.156Z,97918.81
2022-10-16T03:50:08.753Z,97916.38
2022-10-16T03:52:35.287Z,97926.00
2022-10-16T03:55:01.815Z,97939.59
2022-10-16T03:57:28.720Z,97930.75
2022-10-16T03:59:55.466Z,97937.59
2022-10-16T04:02:21.933Z,97937.59
2022-10-16T04:04:48.745Z,97941.28
2022-10-16T04:07:15.348Z,97941.00
2022-10-16T04:09:42.070Z,97939.28
2022-10-16T04:12:08.581Z,97939.69
2022-10-16T04:14:35.143Z,97939.53
2022-10-16T04:17:01.661Z,97945.00
2022-10-16T04:19:28.103Z,97937.31
2022-10-16T04:21:54.753Z,97940.09
2022-10-16T04:24:21.191Z,97939.78
2022-10-16T04:26:47.632Z,97938.09
2022-10-16T04:29:14.081Z,97935.09
2022-10-16T04:31:40.548Z,97937.81
2022-10-16T04:34:07.082Z,97938.97
2022-10-16T04:36:33.572Z,97941.50
2022-10-16T04:39:00.148Z,97943.47
2022-10-16T04:41:26.801Z,97944.91
2022-10-16T04:43:53.254Z,97951.50
2022-10-16T04:46:19.695Z,97949.28
2022-10-16T04:48:47.732Z,97957.97
2022-10-16T04:51:14.235Z,97954.72
2022-10-16T04:53:40.734Z,97961.00
2022-10-16T04:56:07.204Z,97956.56
2022-10-16T04:58:34.014Z,97959.66
2022-10-16T05:01:00.643Z,97961.69
2022-10-16T05:03:27.128Z,97961.06
2022-10-16T05:05:53.759Z,97968.97
2022-10-16T05:08:20.238Z,97975.44
2022-10-16T05:10:46.715Z,97973.25
2022-10-16T05:13:13.237Z,97973.63
2022-10-16T05:15:39.983Z,97975.00
2022-10-16T05:18:06.518Z,97975.34
2022-10-16T05:20:33.009Z,97981.56
2022-10-16T05:22:59.499Z,97987.72
2022-10-16T05:25:26.132Z,97989.72
2022-10-16T05:27:52.614Z,97989.72
2022-10-16T05:30:19.412Z,97998.84
2022-10-16T05:32:49.869Z,98005.13
2022-10-16T05:35:17.041Z,98012.50
2022-10-16T05:37:45.043Z,98014.56
2022-10-16T05:40:11.874Z,98006.13
2022-10-16T05:42:38.330Z,98006.13
2022-10-16T05:45:06.323Z,98003.72
2022-10-16T05:47:32.880Z,98002.19
2022-10-16T05:49:59.370Z,98003.31
2022-10-16T05:52:25.989Z,98009.13
2022-10-16T05:54:52.607Z,98009.69
2022-10-16T05:57:19.137Z,98013.25
2022-10-16T05:59:45.591Z,98021.16
2022-10-16T06:02:15.455Z,98027.69
2022-10-16T06:04:41.898Z,98034.03
2022-10-16T06:07:08.387Z,98032.56
2022-10-16T06:09:34.874Z,98047.28
2022-10-16T06:12:01.382Z,98045.59
2022-10-16T06:14:27.966Z,98054.69
2022-10-16T06:16:54.434Z,98056.97
2022-10-16T06:19:20.910Z,98053.88
2022-10-16T06:21:47.861Z,98055.22
2022-10-16T06:24:14.426Z,98056.38
2022-10-16T06:26:40.892Z,98065.69
2022-10-16T06:29:09.356Z,98064.66
2022-10-16T06:31:35.908Z,98069.59
2022-10-16T06:34:03.008Z,98075.88
2022-10-16T06:36:29.573Z,98082.38
2022-10-16T06:38:56.014Z,98087.00
2022-10-16T06:41:23.604Z,98084.59
2022-10-16T06:43:50.599Z,98090.47
2022-10-16T06:46:18.864Z,98102.34
2022-10-16T06:48:45.329Z,98094.91
2022-10-16T06:51:16.815Z,98100.19
2022-10-16T06:54:01.901Z,98102.09
2022-10-16T06:56:31.835Z,98101.97
2022-10-16T06:58:58.979Z,98103.47
2022-10-16T07:01:25.589Z,98096.78
2022-10-16T07:03:52.475Z,98099.59
2022-10-16T07:06:20.407Z,98103.09
2022-10-16T07:08:47.527Z,98100.47
2022-10-16T07:11:16.347Z,98103.00
2022-10-16T07:13:43.479Z,98097.84
2022-10-16T07:16:14.569Z,98109.34
2022-10-16T07:18:41.452Z,98096.69
2022-10-16T07:21:08.647Z,98101.63
2022-10-16T07:23:35.098Z,98110.63
2022-10-16T07:26:01.709Z,98105.00
2022-10-16T07:28:28.747Z,98102.53
2022-10-16T07:30:55.410Z,98108.81
2022-10-16T07:33:22.212Z,98119.41
2022-10-16T07:35:49.871Z,98105.88
2022-10-16T07:38:16.348Z,98100.59
2022-10-16T07:40:42.924Z,98102.31
2022-10-16T07:43:09.391Z,98111.88
2022-10-16T07:45:35.895Z,98112.41
2022-10-16T07:48:02.364Z,98107.41
2022-10-16T07:50:28.921Z,98109.97
2022-10-16T07:52:55.418Z,98106.66
2022-10-16T07:55:21.866Z,98109.59
2022-10-16T07:57:48.355Z,98107.41
2022-10-16T08:00:14.946Z,98118.47
2022-10-16T08:02:41.487Z,98118.03
2022-10-16T08:05:08.368Z,98120.00
2022-10-16T08:07:34.825Z,98120.34
2022-10-16T08:10:01.397Z,98123.59
2022-10-16T08:12:27.861Z,98116.34
2022-10-16T08:14:54.327Z,98115.53
2022-10-16T08:17:20.771Z,98123.84
2022-10-16T08:19:48.407Z,98124.34
2022-10-16T08:22:15.572Z,98118.56
2022-10-16T08:24:42.044Z,98122.91
2022-10-16T08:27:09.895Z,98136.69
2022-10-16T08:29:36.533Z,98127.09
2022-10-16T08:32:04.899Z,98131.03
2022-10-16T08:34:31.542Z,98122.47
2022-10-16T08:36:58.225Z,98121.63
2022-10-16T08:39:24.659Z,98127.00
2022-10-16T08:41:51.098Z,98126.84
2022-10-16T08:44:17.520Z,98137.03
2022-10-16T08:46:52.278Z,98130.78
2022-10-16T08:49:19.114Z,98132.19
2022-10-16T08:51:47.483Z,98134.44
2022-10-16T08:54:23.909Z,98139.06
2022-10-16T08:56:50.406Z,98138.22
2022-10-16T08:59:17.443Z,98140.28
2022-10-16T09:01:48.467Z,98140.31
2022-10-16T09:04:27.228Z,98137.84
2022-10-16T09:06:57.287Z,98143.91
2022-10-16T09:09:39.039Z,98143.94
2022-10-16T09:12:11.929Z,98144.94
2022-10-16T09:14:44.720Z,98133.94
2022-10-16T09:17:32.417Z,98143.34
2022-10-16T09:20:17.335Z,98135.88
2022-10-16T09:22:43.889Z,98137.34
2022-10-16T09:25:17.793Z,98139.75
2022-10-16T09:27:46.674Z,98149.09
2022-10-16T09:30:18.301Z,98144.25
2022-10-16T09:32:45.953Z,98150.72
2022-10-16T09:35:17.988Z,98145.69
2022-10-16T09:37:46.579Z,98152.00
2022-10-16T09:40:16.847Z,98147.06
2022-10-16T09:42:43.511Z,98145.91
2022-10-16T09:45:21.766Z,98147.25
2022-10-16T09:47:48.238Z,98142.72
2022-10-16T09:50:41.132Z,98141.81
2022-10-16T09:53:12.379Z,98141.19
2022-10-16T09:55:48.985Z,98140.00
2022-10-16T09:58:15.470Z,98136.78
2022-10-16T10:00:42.782Z,98139.22
2022-10-16T10:03:11.747Z,98145.06
2022-10-16T10:05:40.272Z,98145.47
2022-10-16T10:08:07.372Z,98142.13
2022-10-16T10:10:35.483Z,98139.69
2022-10-16T10:13:02.473Z,98139.91
2022-10-16T10:15:33.939Z,98137.53
2022-10-16T10:18:00.632Z,98129.13
2022-10-16T10:20:35.393Z,98138.50
2022-10-16T10:23:02.686Z,98139.00
2022-10-16T10:25:29.163Z,98142.59
2022-10-16T10:28:07.838Z,98140.91
2022-10-16T10:30:45.527Z,98138.53
2022-10-16T10:33:12.101Z,98130.19
2022-10-16T10:35:44.689Z,98126.97
2022-10-16T10:38:26.931Z,98130.63
2022-10-16T10:41:16.828Z,98121.50
2022-10-16T10:43:43.267Z,98118.63
2022-10-16T10:46:15.086Z,98124.00
2022-10-16T10:48:56.805Z,98121.44
2022-10-16T10:51:29.525Z,98121.38
2022-10-16T10:54:20.049Z,98122.00
2022-10-16T10:56:58.416Z,98120.19
2022-10-16T10:59:30.932Z,98120.88
2022-10-16T11:02:00.767Z,98125.75
2022-10-16T11:04:30.260Z,98124.75
2022-10-16T11:07:00.226Z,98129.63
2022-10-16T11:09:29.112Z,98127.38
2022-10-16T11:11:55.562Z,98124.31
2022-10-16T11:14:22.017Z,98118.72
2022-10-16T11:16:51.520Z,98110.44
2022-10-16T11:19:36.716Z,98111.59
2022-10-16T11:22:22.007Z,98101.16
2022-10-16T11:25:03.928Z,98119.81
2022-10-16T11:27:38.284Z,98106.19
2022-10-16T11:30:07.727Z,98106.69
2022-10-16T11:32:44.377Z,98117.00
2022-10-16T11:35:20.863Z,98113.84
2022-10-16T11:37:49.277Z,98104.63
2022-10-16T11:40:26.139Z,98111.84
2022-10-16T11:43:01.144Z,98111.03
2022-10-16T11:45:42.629Z,98104.97
2022-10-16T11:48:26.982Z,98101.50
2022-10-16T11:51:12.325Z,98109.06
2022-10-16T11:53:54.752Z,98098.03
2022-10-16T11:56:22.307Z,98103.09
2022-10-16T11:59:01.346Z,98110.78
2022-10-16T12:01:43.997Z,98099.38
2022-10-16T12:04:37.007Z,98092.75
2022-10-16T12:07:08.858Z,98099.69
2022-10-16T12:09:37.581Z,98102.25
2022-10-16T12:12:04.307Z,98101.78
2022-10-16T12:14:30.731Z,98096.84
2022-10-16T12:16:59.272Z,98098.88
2022-10-16T12:19:26.885Z,98094.22
2022-10-16T12:21:55.440Z,98098.78
2022-10-16T12:24:42.246Z,98091.56
2022-10-16T12:27:27.672Z,98096.28
2022-10-16T12:29:58.866Z,98094.38
2022-10-16T12:32:48.771Z,98094.28
2022-10-16T12:35:20.988Z,98099.50
2022-10-16T12:37:47.561Z,98090.84
2022-10-16T12:40:34.353Z,98096.72
2022-10-16T12:43:11.775Z,98097.81
2022-10-16T12:45:38.501Z,98100.66
2022-10-16T12:48:19.002Z,98097.44
2022-10-16T12:50:45.498Z,98100.94
2022-10-16T12:53:25.903Z,98097.09
2022-10-16T12:55:52.390Z,98099.50
2022-10-16T12:58:28.079Z,98107.44
2022-10-16T13:00:58.989Z,98103.19
2022-10-16T13:03:28.494Z,98108.34
2022-10-16T13:06:07.409Z,98106.44
2022-10-16T13:08:36.930Z,98113.16
2022-10-16T13:11:03.808Z,98101.44
2022-10-16T13:13:49.141Z,98116.47
2022-10-16T13:16:31.914Z,98114.03
2022-10-16T13:19:21.488Z,98111.38
2022-10-16T13:22:03.952Z,98120.78
2022-10-16T13:24:42.672Z,98118.69
2022-10-16T13:27:21.350Z,98120.13
2022-10-16T13:29:53.421Z,98125.50
2022-10-16T13:32:20.856Z,98131.88
2022-10-16T13:34:48.238Z,98123.72
2022-10-16T13:37:18.902Z,98130.78
2022-10-16T13:39:45.460Z,98139.75
2022-10-16T13:42:14.475Z,98131.97
2022-10-16T13:44:43.836Z,98139.75
2022-10-16T13:47:30.617Z,98143.22
2022-10-16T13:50:01.905Z,98140.25
2022-10-16T13:52:29.379Z,98145.50
2022-10-16T13:55:00.872Z,98147.25
2022-10-16T13:57:28.898Z,98141.84
2022-10-16T13:59:55.962Z,98143.00
2022-10-16T14:02:25.816Z,98141.34
2022-10-16T14:04:53.447Z,98143.22
2022-10-16T14:07:24.736Z,98149.03
2022-10-16T14:09:52.061Z,98158.81
2022-10-16T14:12:19.262Z,98155.69
2022-10-16T14:14:48.319Z,98153.38
2022-10-16T14:17:16.244Z,98156.91
2022-10-16T14:19:46.929Z,98156.16
2022-10-16T14:22:29.301Z,98159.81
2022-10-16T14:24:56.664Z,98166.53
2022-10-16T14:27:29.318Z,98168.69
2022-10-16T14:30:25.333Z,98160.44
2022-10-16T14:32:56.421Z,98159.09
2022-10-16T14:35:24.312Z,98157.03
2022-10-16T14:37:54.990Z,98163.53
2022-10-16T14:40:23.824Z,98161.53
2022-10-16T14:42:50.496Z,98159.81
2022-10-16T14:45:20.566Z,98162.50
2022-10-16T14:47:50.332Z,98167.13
2022-10-16T14:50:17.141Z,98173.31
2022-10-16T14:52:44.482Z,98178.88
2022-10-16T14:55:11.590Z,98180.28
2022-10-16T14:57:39.015Z,98192.56
2022-10-16T15:00:16.809Z,98188.47
2022-10-16T15:02:43.605Z,98189.44
2022-10-16T15:05:20.899Z,98188.59
2022-10-16T15:07:47.623Z,98189.47
2022-10-16T15:10:14.721Z,98187.81
2022-10-16T15:12:41.374Z,98192.03
2022-10-16T15:15:21.699Z,98199.69
2022-10-16T15:17:48.936Z,98196.50
2022-10-16T15:20:15.517Z,98199.44
2022-10-16T15:22:42.283Z,98206.53
2022-10-16T15:25:35.203Z,98206.78
2022-10-16T15:28:02.290Z,98208.78
2022-10-16T15:30:29.109Z,98209.59
2022-10-16T15:32:55.594Z,98211.19
2022-10-16T15:35:22.374Z,98221.44
2022-10-16T15:37:49.284Z,98215.50
2022-10-16T15:40:16.035Z,98221.34
2022-10-16T15:42:42.675Z,98218.16
2022-10-16T15:45:10.262Z,98220.66
2022-10-16T15:47:36.899Z,98217.66
2022-10-16T15:50:03.773Z,98222.34
2022-10-16T15:52:30.403Z,98220.56
2022-10-16T15:54:56.911Z,98224.03
2022-10-16T15:57:24.709Z,98219.22
2022-10-16T15:59:51.557Z,98212.25
2022-10-16T16:02:18.070Z,98225.22
2022-10-16T16:04:45.030Z,98231.97
2022-10-16T16:07:11.770Z,98225.41
2022-10-16T16:09:38.534Z,98231.09
2022-10-16T16:12:05.033Z,98236.44
2022-10-16T16:14:31.493Z,98235.22
2022-10-16T16:16:58.173Z,98232.41
2022-10-16T16:19:24.717Z,98247.31
2022-10-16T16:21:51.401Z,98247.09
2022-10-16T16:24:17.867Z,98242.84
2022-10-16T16:26:44.542Z,98252.69
2022-10-16T16:29:15.121Z,98255.78
2022-10-16T16:31:41.995Z,98259.22
2022-10-16T16:34:08.658Z,98253.00
2022-10-16T16:36:35.655Z,98255.56
2022-10-16T16:39:02.430Z,98259.63
2022-10-16T16:41:30.864Z,98266.19
2022-10-16T16:44:02.638Z,98270.69
2022-10-16T16:46:29.174Z,98271.00
2022-10-16T16:48:56.451Z,98269.09
2022-10-16T16:51:22.987Z,98270.78
2022-10-16T16:53:51.001Z,98287.44
2022-10-16T16:56:17.927Z,98280.31
2022-10-16T16:58:51.454Z,98291.88
2022-10-16T17:01:20.683Z,98300.59
2022-10-16T17:03:50.670Z,98300.09
2022-10-16T17:06:20.412Z,98296.03
2022-10-16T17:08:48.066Z,98302.16
2022-10-16T17:11:16.061Z,98307.59
2022-10-16T17:13:42.680Z,98305.72
2022-10-16T17:16:09.767Z,98321.88
2022-10-16T17:18:36.330Z,98313.41
2022-10-16T17:21:04.403Z,98325.97
2022-10-16T17:23:31.325Z,98341.91
2022-10-16T17:25:57.848Z,98333.25
2022-10-16T17:28:24.523Z,98332.44
2022-10-16T17:30:51.013Z,98338.53
2022-10-16T17:33:17.490Z,98334.59
2022-10-16T17:35:45.055Z,98339.03
2022-10-16T17:38:13.019Z,98335.13
2022-10-16T17:40:40.035Z,98334.09
2022-10-16T17:43:06.709Z,98350.81
2022-10-16T17:45:37.096Z,98354.53
2022-10-16T17:48:06.029Z,98358.91
2022-10-16T17:50:32.664Z,98352.97
2022-10-16T17:52:59.137Z,98356.34
2022-10-16T17:55:27.259Z,98359.75
2022-10-16T17:57:53.943Z,98362.59
2022-10-16T18:00:20.538Z,98357.16
2022-10-16T18:02:48.961Z,98368.13
2022-10-16T18:05:15.480Z,98365.13
2022-10-16T18:10:14.736Z,98379.38
2022-10-16T18:12:43.199Z,98379.72
2022-10-16T18:15:10.962Z,98375.81
2022-10-16T18:17:38.381Z,98384.44
2022-10-16T18:20:05.797Z,98382.44
2022-10-16T18:22:36.052Z,98383.75
2022-10-16T18:25:04.845Z,98389.44
2022-10-16T18:27:31.963Z,98389.34
2022-10-16T18:29:58.525Z,98385.41
2022-10-16T18:32:24.983Z,98396.34
2022-10-16T18:34:51.926Z,98387.31
2022-10-16T18:37:20.010Z,98386.78
2022-10-16T18:39:47.841Z,98396.91
2022-10-16T18:42:14.782Z,98396.78
2022-10-16T18:44:41.223Z,98397.16
2022-10-16T18:47:07.666Z,98394.66
2022-10-16T18:49:34.225Z,98397.31
2022-10-16T18:52:03.145Z,98408.53
2022-10-16T18:54:30.195Z,98404.28
2022-10-16T18:56:56.791Z,98417.53
2022-10-16T18:59:23.406Z,98421.16
2022-10-16T19:01:50.230Z,98424.19
2022-10-16T19:04:17.646Z,98423.34
2022-10-16T19:06:45.688Z,98431.00
2022-10-16T19:09:19.309Z,98425.75
2022-10-16T19:11:45.880Z,98438.06
2022-10-16T19:14:13.380Z,98439.13
2022-10-16T19:16:42.656Z,98443.69
2022-10-16T19:19:10.983Z,98439.69
2022-10-16T19:21:40.072Z,98444.88
2022-10-16T19:24:07.381Z,98442.97
2022-10-16T19:26:36.789Z,98450.56
2022-10-16T19:29:07.183Z,98449.88
2022-10-16T19:31:34.477Z,98445.28
2022-10-16T19:34:03.076Z,98454.13
2022-10-16T19:36:34.584Z,98459.41
2022-10-16T19:39:02.572Z,98463.66
2022-10-16T19:41:30.011Z,98467.75
2022-10-16T19:44:00.540Z,98471.16
2022-10-16T19:46:27.300Z,98480.25
2022-10-16T19:48:57.542Z,98474.22
2022-10-16T19:51:24.739Z,98483.06
2022-10-16T19:53:58.694Z,98480.97
2022-10-16T19:56:26.207Z,98488.47
2022-10-16T19:58:54.151Z,98489.31
2022-10-16T20:01:21.218Z,98491.63
2022-10-16T20:03:48.590Z,98495.47
2022-10-16T20:06:15.639Z,98496.63
2022-10-16T20:08:44.385Z,98494.84
2022-10-16T20:11:15.171Z,98499.25
2022-10-16T20:13:42.542Z,98506.94
2022-10-16T20:16:10.383Z,98508.47
2022-10-16T20:18:37.521Z,98499.84
2022-10-16T20:21:09.058Z,98509.97
2022-10-16T20:23:35.521Z,98511.56
2022-10-16T20:26:04.139Z,98511.28
2022-10-16T20:28:31.090Z,98513.78
2022-10-16T20:30:57.678Z,98516.38
2022-10-16T20:33:24.276Z,98528.97
2022-10-16T20:35:50.946Z,98527.13
2022-10-16T20:38:18.441Z,98530.69
2022-10-16T20:40:46.004Z,98530.94
2022-10-16T20:43:13.635Z,98539.47
2022-10-16T20:45:40.244Z,98533.53
2022-10-16T20:48:06.986Z,98536.69
2022-10-16T20:50:33.525Z,98530.97
2022-10-16T20:53:00.552Z,98534.66
2022-10-16T20:55:27.164Z,98535.72
2022-10-16T20:57:54.157Z,98541.81
2022-10-16T21:00:20.703Z,98537.28
2022-10-16T21:02:50.099Z,98544.09
2022-10-16T21:05:16.671Z,98543.81
2022-10-16T21:07:43.246Z,98543.50
2022-10-16T21:10:10.029Z,98556.63
2022-10-16T21:12:36.505Z,98542.97
2022-10-16T21:15:14.342Z,98550.09
2022-10-16T21:17:41.819Z,98553.03
2022-10-16T21:20:08.544Z,98554.63
2022-10-16T21:22:35.012Z,98554.38
2022-10-16T21:25:01.487Z,98548.69
2022-10-16T21:27:27.983Z,98556.34
2022-10-16T21:29:54.468Z,98553.53
2022-10-16T21:32:21.436Z,98555.09
2022-10-16T21:34:48.266Z,98558.38
2022-10-16T21:37:14.783Z,98566.34
2022-10-16T21:39:41.263Z,98564.03
2022-10-16T21:42:07.848Z,98570.34
2022-10-16T21:44:34.306Z,98572.03
2022-10-16T21:47:00.768Z,98570.34
2022-10-16T21:49:27.306Z,98570.59
2022-10-16T21:51:53.833Z,98574.88
2022-10-16T21:54:21.867Z,98572.59
2022-10-16T21:56:48.404Z,98569.88
2022-10-16T21:59:15.095Z,98570.19
2022-10-16T22:01:42.339Z,98573.16
2022-10-16T22:04:10.467Z,98570.59
2022-10-16T22:06:36.956Z,98574.19
2022-10-16T22:09:03.625Z,98577.44
2022-10-16T22:11:37.654Z,98569.03
2022-10-16T22:14:05.086Z,98578.56
2022-10-16T22:16:31.641Z,98577.44
2022-10-16T22:18:59.685Z,98585.38
2022-10-16T22:21:28.334Z,98580.81
2022-10-16T22:23:55.248Z,98583.25
2022-10-16T22:26:22.071Z,98587.66
2022-10-16T22:28:48.701Z,98578.56
2022-10-16T22:31:15.269Z,98578.84
2022-10-16T22:33:41.769Z,98577.44
2022-10-16T22:36:10.213Z,98576.84
2022-10-16T22:38:36.920Z,98569.59
2022-10-16T22:41:08.163Z,98580.53
2022-10-16T22:43:35.556Z,98582.50
2022-10-16T22:46:03.246Z,98580.19
2022-10-16T22:48:29.925Z,98587.06
2022-10-16T22:50:56.454Z,98585.91
2022-10-16T22:53:22.953Z,98590.56
2022-10-16T22:55:49.404Z,98586.47
2022-10-16T22:58:15.885Z,98582.91
2022-10-16T23:00:42.989Z,98586.19
2022-10-16T23:03:09.546Z,98584.22
2022-10-16T23:05:39.832Z,98590.19
2022-10-16T23:08:07.223Z,98586.75
2022-10-16T23:10:34.589Z,98591.44
2022-10-16T23:13:01.156Z,98599.28
2022-10-16T23:15:27.649Z,98600.69
2022-10-16T23:17:54.110Z,98601.50
2022-10-16T23:20:20.575Z,98603.16
2022-10-16T23:22:47.046Z,98603.16
2022-10-16T23:25:13.550Z,98604.66
2022-10-16T23:27:40.087Z,98604.63
2022-10-16T23:30:06.954Z,98607.75
2022-10-16T23:32:33.958Z,98611.31
2022-10-16T23:35:00.624Z,98619.00
2022-10-16T23:37:27.192Z,98616.28
2022-10-16T23:39:56.557Z,98608.31
2022-10-16T23:42:23.055Z,98610.56
2022-10-16T23:44:49.523Z,98612.16
2022-10-16T23:47:16.106Z,98611.72
2022-10-16T23:49:43.225Z,98621.91
2022-10-16T23:52:09.750Z,98619.44
2022-10-16T23:54:36.591Z,98621.06
2022-10-16T23:57:03.145Z,98621.91
2022-10-16T23:59:29.619Z,98623.34
